createdAt,value
2024-03-05T00:01:11.478Z,99923.00
2024-03-05T00:03:49.775Z,99919.20
2024-03-05T00:06:26.700Z,99922.20
2024-03-05T00:09:03.466Z,99919.20
2024-03-05T00:11:40.226Z,99917.00
2024-03-05T00:14:17.466Z,99914.80
2024-03-05T00:16:55.623Z,99915.80
2024-03-05T00:19:33.445Z,99913.80
2024-03-05T00:22:11.611Z,99911.40
2024-03-05T00:24:48.033Z,99909.60
2024-03-05T00:27:23.998Z,99909.20
2024-03-05T00:30:00.813Z,99909.00
2024-03-05T00:32:38.670Z,99908.00
2024-03-05T00:35:17.990Z,99908.40
2024-03-05T00:37:55.359Z,99910.60
2024-03-05T00:40:33.436Z,99907.80
2024-03-05T00:43:12.388Z,99906.80
2024-03-05T00:45:49.655Z,99907.60
2024-03-05T00:48:26.837Z,99905.20
2024-03-05T00:51:03.820Z,99899.60
2024-03-05T00:53:40.612Z,99898.40
2024-03-05T00:56:19.048Z,99902.00
2024-03-05T00:58:56.260Z,99898.20
2024-03-05T01:01:33.309Z,99895.80
2024-03-05T01:04:11.081Z,99895.00
2024-03-05T01:06:48.477Z,99895.60
2024-03-05T01:09:26.339Z,99892.60
2024-03-05T01:12:02.994Z,99892.20
2024-03-05T01:14:40.220Z,99895.80
2024-03-05T01:17:17.037Z,99894.40
2024-03-05T01:19:54.262Z,99889.80
2024-03-05T01:22:31.604Z,99888.60
2024-03-05T01:25:10.750Z,99886.40
2024-03-05T01:27:47.541Z,99886.20
2024-03-05T01:30:25.661Z,99888.20
2024-03-05T01:33:07.177Z,99890.40
2024-03-05T01:35:45.841Z,99891.00
2024-03-05T01:38:22.793Z,99891.20
2024-03-05T01:41:00.069Z,99892.60
2024-03-05T01:43:37.050Z,99892.60
2024-03-05T01:46:15.953Z,99891.80
2024-03-05T01:48:54.294Z,99896.80
2024-03-05T01:51:31.914Z,99899.20
2024-03-05T01:54:09.558Z,99897.20
2024-03-05T01:56:50.081Z,99907.20
2024-03-05T01:59:26.944Z,99904.80
2024-03-05T02:02:04.619Z,99902.40
2024-03-05T02:04:44.152Z,99903.20
2024-03-05T02:07:24.385Z,99907.60
2024-03-05T02:10:09.036Z,99906.00
2024-03-05T02:12:46.488Z,99904.40
2024-03-05T02:15:23.981Z,99899.20
2024-03-05T02:17:59.967Z,99899.00
2024-03-05T02:20:37.374Z,99900.80
2024-03-05T02:23:14.400Z,99896.40
2024-03-05T02:25:51.949Z,99894.20
2024-03-05T02:28:28.920Z,99897.00
2024-03-05T02:31:06.250Z,99890.20
2024-03-05T02:33:45.505Z,99890.60
2024-03-05T02:36:22.269Z,99889.20
2024-03-05T02:38:58.946Z,99890.20
2024-03-05T02:41:36.485Z,99889.40
2024-03-05T02:44:13.531Z,99887.00
2024-03-05T02:46:52.016Z,99883.00
2024-03-05T02:49:28.807Z,99882.00
2024-03-05T02:52:06.017Z,99883.60
2024-03-05T02:54:42.783Z,99882.00
2024-03-05T02:57:19.992Z,99883.00
2024-03-05T02:59:56.906Z,99881.40
2024-03-05T03:02:34.034Z,99874.20
2024-03-05T03:05:14.684Z,99872.40
2024-03-05T03:07:51.120Z,99865.60
2024-03-05T03:10:29.191Z,99865.60
2024-03-05T03:13:05.777Z,99865.40
2024-03-05T03:15:43.964Z,99864.00
2024-03-05T03:18:21.487Z,99862.60
2024-03-05T03:20:58.133Z,99862.80
2024-03-05T03:23:34.660Z,99860.80
2024-03-05T03:26:12.699Z,99859.20
2024-03-05T03:28:49.799Z,99861.40
2024-03-05T03:31:27.633Z,99856.80
2024-03-05T03:34:04.638Z,99857.00
2024-03-05T03:36:41.491Z,99859.80
2024-03-05T03:39:25.255Z,99857.60
2024-03-05T03:42:03.011Z,99854.60
2024-03-05T03:44:41.200Z,99858.40
2024-03-05T03:47:17.986Z,99854.40
2024-03-05T03:49:54.745Z,99856.00
2024-03-05T03:52:32.710Z,99852.60
2024-03-05T03:55:11.303Z,99857.40
2024-03-05T03:57:48.254Z,99857.40
2024-03-05T04:00:34.518Z,99867.00
2024-03-05T04:03:13.995Z,99876.00
2024-03-05T04:05:50.172Z,99874.40
2024-03-05T04:08:26.848Z,99874.80
2024-03-05T04:11:04.472Z,99884.20
2024-03-05T04:13:41.774Z,99889.40
2024-03-05T04:16:18.815Z,99893.60
2024-03-05T04:18:56.514Z,99899.00
2024-03-05T04:21:33.872Z,99901.80
2024-03-05T04:24:12.785Z,99896.60
2024-03-05T04:26:49.848Z,99899.80
2024-03-05T04:29:31.584Z,99896.00
2024-03-05T04:32:10.456Z,99898.60
2024-03-05T04:34:51.630Z,99899.00
2024-03-05T04:37:28.658Z,99891.80
2024-03-05T04:40:11.645Z,99891.40
2024-03-05T04:42:50.377Z,99889.20
2024-03-05T04:45:27.215Z,99886.20
2024-03-05T04:48:03.761Z,99889.80
2024-03-05T04:50:40.580Z,99894.80
2024-03-05T04:53:16.998Z,99897.20
2024-03-05T04:55:53.910Z,99899.40
2024-03-05T04:58:29.779Z,99897.40
2024-03-05T05:01:07.123Z,99893.00
2024-03-05T05:03:45.185Z,99894.00
2024-03-05T05:06:22.846Z,99888.60
2024-03-05T05:08:59.752Z,99890.20
2024-03-05T05:11:36.464Z,99889.20
2024-03-05T05:14:13.362Z,99887.20
2024-03-05T05:16:53.117Z,99880.60
2024-03-05T05:19:30.636Z,99878.00
2024-03-05T05:22:07.770Z,99876.20
2024-03-05T05:24:44.392Z,99874.40
2024-03-05T05:27:21.205Z,99872.00
2024-03-05T05:30:05.733Z,99871.20
2024-03-05T05:32:46.161Z,99868.00
2024-03-05T05:35:24.321Z,99864.20
2024-03-05T05:38:00.905Z,99861.20
2024-03-05T05:40:37.295Z,99859.80
2024-03-05T05:43:14.715Z,99861.60
2024-03-05T05:45:51.161Z,99864.80
2024-03-05T05:48:30.031Z,99869.00
2024-03-05T05:51:11.677Z,99868.20
2024-03-05T05:53:48.412Z,99868.60
2024-03-05T05:56:26.782Z,99880.40
2024-03-05T05:59:06.557Z,99890.60
2024-03-05T06:01:43.733Z,99889.20
2024-03-05T06:04:20.555Z,99893.80
2024-03-05T06:06:57.911Z,99899.60
2024-03-05T06:09:35.740Z,99897.80
2024-03-05T06:12:15.266Z,99899.40
2024-03-05T06:14:52.171Z,99897.60
2024-03-05T06:17:29.183Z,99901.80
2024-03-05T06:20:06.382Z,99908.00
2024-03-05T06:22:43.916Z,99911.20
2024-03-05T06:25:23.089Z,99912.40
2024-03-05T06:28:00.453Z,99918.20
2024-03-05T06:30:37.630Z,99914.00
2024-03-05T06:33:15.523Z,99914.40
2024-03-05T06:35:51.781Z,99912.20
2024-03-05T06:38:29.253Z,99915.00
2024-03-05T06:41:06.484Z,99920.80
2024-03-05T06:43:44.353Z,99914.80
2024-03-05T06:46:22.863Z,99908.40
2024-03-05T06:49:02.467Z,99905.60
2024-03-05T06:51:53.590Z,99908.00
2024-03-05T06:54:49.552Z,99915.60
2024-03-05T06:57:26.977Z,99910.80
2024-03-05T07:00:16.601Z,99912.20
2024-03-05T07:02:53.133Z,99911.20
2024-03-05T07:05:30.333Z,99912.40
2024-03-05T07:08:09.680Z,99909.80
2024-03-05T07:10:47.237Z,99905.20
2024-03-05T07:13:24.259Z,99904.80
2024-03-05T07:16:00.608Z,99912.80
2024-03-05T07:18:37.852Z,99912.20
2024-03-05T07:21:14.440Z,99908.20
2024-03-05T07:23:51.260Z,99914.40
2024-03-05T07:26:27.148Z,99921.40
2024-03-05T07:29:04.392Z,99928.00
2024-03-05T07:31:42.432Z,99937.60
2024-03-05T07:34:19.676Z,99942.20
2024-03-05T07:36:56.529Z,99952.40
2024-03-05T07:39:33.904Z,99960.40
2024-03-05T07:42:13.430Z,99966.20
2024-03-05T07:44:50.528Z,99965.80
2024-03-05T07:47:27.234Z,99965.60
2024-03-05T07:50:03.612Z,99972.40
2024-03-05T07:52:41.170Z,99975.40
2024-03-05T07:55:26.177Z,99976.60
2024-03-05T07:58:07.968Z,99975.00
2024-03-05T08:00:44.385Z,99969.20
2024-03-05T08:03:21.700Z,99965.60
2024-03-05T08:06:00.494Z,99967.20
2024-03-05T08:08:37.313Z,99966.60
2024-03-05T08:11:14.859Z,99966.60
2024-03-05T08:13:52.382Z,99965.80
2024-03-05T08:16:29.119Z,99969.20
2024-03-05T08:19:05.899Z,99973.60
2024-03-05T08:21:42.457Z,99981.20
2024-03-05T08:24:20.154Z,99979.80
2024-03-05T08:26:55.753Z,99976.80
2024-03-05T08:29:32.347Z,99982.80
2024-03-05T08:32:10.889Z,99988.80
2024-03-05T08:34:47.955Z,99985.00
2024-03-05T08:37:24.566Z,99986.60
2024-03-05T08:40:01.969Z,99982.00
2024-03-05T08:42:38.439Z,99989.80
2024-03-05T08:45:19.956Z,99991.80
2024-03-05T08:47:59.351Z,99988.20
2024-03-05T08:50:37.106Z,99989.60
2024-03-05T08:53:15.591Z,99995.00
2024-03-05T08:55:53.442Z,99992.40
2024-03-05T08:58:30.672Z,99994.40
2024-03-05T09:01:07.939Z,99996.40
2024-03-05T09:03:45.576Z,99996.80
2024-03-05T09:06:21.806Z,99998.60
2024-03-05T09:08:58.454Z,100003.80
2024-03-05T09:11:36.693Z,100007.60
2024-03-05T09:14:13.563Z,100010.40
2024-03-05T09:16:50.450Z,100011.00
2024-03-05T09:19:26.626Z,100010.20
2024-03-05T09:22:06.053Z,100015.20
2024-03-05T09:24:42.315Z,100015.00
2024-03-05T09:27:19.363Z,100015.40
2024-03-05T09:29:57.437Z,100012.80
2024-03-05T09:32:34.696Z,100013.00
2024-03-05T09:35:14.761Z,100012.80
2024-03-05T09:37:52.354Z,100009.00
2024-03-05T09:40:30.212Z,100013.00
2024-03-05T09:43:08.480Z,100021.60
2024-03-05T09:45:48.721Z,100021.20
2024-03-05T09:48:27.454Z,100027.00
2024-03-05T09:51:04.200Z,100020.60
2024-03-05T09:53:41.452Z,100021.80
2024-03-05T09:56:19.072Z,100023.60
2024-03-05T09:58:56.994Z,100020.40
2024-03-05T10:01:35.695Z,100021.60
2024-03-05T10:04:17.299Z,100019.40
2024-03-05T10:06:55.545Z,100019.20
2024-03-05T10:09:32.706Z,100022.20
2024-03-05T10:12:10.848Z,100018.20
2024-03-05T10:14:47.372Z,100014.00
2024-03-05T10:17:24.393Z,100013.00
2024-03-05T10:20:01.257Z,100014.00
2024-03-05T10:22:39.907Z,100013.20
2024-03-05T10:25:25.098Z,100012.60
2024-03-05T10:28:03.281Z,100019.00
2024-03-05T10:30:44.142Z,100023.00
2024-03-05T10:33:26.688Z,100023.00
2024-03-05T10:36:04.148Z,100018.40
2024-03-05T10:38:42.391Z,100015.80
2024-03-05T10:41:26.809Z,100021.60
2024-03-05T10:44:09.150Z,100016.80
2024-03-05T10:46:48.559Z,100018.00
2024-03-05T10:49:27.740Z,100021.40
2024-03-05T10:52:08.027Z,100021.60
2024-03-05T10:54:47.021Z,100022.40
2024-03-05T10:57:23.993Z,100021.20
2024-03-05T11:00:02.695Z,100020.40
2024-03-05T11:02:41.288Z,100019.20
2024-03-05T11:05:19.929Z,100018.20
2024-03-05T11:07:58.819Z,100018.40
2024-03-05T11:10:36.305Z,100013.60
2024-03-05T11:13:17.119Z,100017.20
2024-03-05T11:15:54.432Z,100015.80
2024-03-05T11:18:39.501Z,100010.60
2024-03-05T11:21:19.066Z,100007.40
2024-03-05T11:24:05.380Z,100005.40
2024-03-05T11:26:46.081Z,99999.20
2024-03-05T11:29:43.593Z,99999.60
2024-03-05T11:32:25.532Z,99998.40
2024-03-05T11:35:07.202Z,99994.60
2024-03-05T11:37:56.320Z,99990.60
2024-03-05T11:40:41.939Z,99991.60
2024-03-05T11:43:41.318Z,99990.40
2024-03-05T11:46:38.155Z,99987.80
2024-03-05T11:49:15.947Z,99985.60
2024-03-05T11:51:54.060Z,99984.40
2024-03-05T11:54:29.590Z,99981.80
2024-03-05T11:57:11.382Z,99979.00
2024-03-05T11:59:50.267Z,99971.60
2024-03-05T12:02:27.263Z,99971.40
2024-03-05T12:05:17.517Z,99968.40
2024-03-05T12:08:08.418Z,99962.80
2024-03-05T12:10:45.710Z,99971.00
2024-03-05T12:13:25.556Z,99966.20
2024-03-05T12:16:11.497Z,99966.60
2024-03-05T12:18:48.415Z,99958.40
2024-03-05T12:21:27.973Z,99956.60
2024-03-05T12:24:05.523Z,99954.20
2024-03-05T12:26:42.936Z,99958.00
2024-03-05T12:29:31.128Z,99959.40
2024-03-05T12:32:12.592Z,99955.00
2024-03-05T12:34:49.919Z,99951.20
2024-03-05T12:37:28.125Z,99949.20
2024-03-05T12:40:10.939Z,99950.60
2024-03-05T12:42:49.319Z,99944.00
2024-03-05T12:45:26.875Z,99944.20
2024-03-05T12:48:09.849Z,99947.80
2024-03-05T12:50:47.438Z,99945.80
2024-03-05T12:53:25.368Z,99945.40
2024-03-05T12:56:13.551Z,99938.60
2024-03-05T12:58:52.217Z,99936.20
2024-03-05T13:01:29.185Z,99936.40
2024-03-05T13:04:05.977Z,99930.60
2024-03-05T13:06:42.745Z,99929.60
2024-03-05T13:09:26.310Z,99933.00
2024-03-05T13:12:03.245Z,99932.00
2024-03-05T13:14:39.157Z,99928.80
2024-03-05T13:17:15.554Z,99927.00
2024-03-05T13:19:52.742Z,99931.00
2024-03-05T13:22:29.020Z,99928.80
2024-03-05T13:25:08.118Z,99925.40
2024-03-05T13:27:45.123Z,99927.80
2024-03-05T13:30:24.306Z,99931.40
2024-03-05T13:33:04.242Z,99929.20
2024-03-05T13:35:40.863Z,99927.80
2024-03-05T13:38:18.436Z,99925.40
2024-03-05T13:40:56.515Z,99921.80
2024-03-05T13:43:33.180Z,99921.60
2024-03-05T13:46:13.155Z,99917.00
2024-03-05T13:48:49.476Z,99920.00
2024-03-05T13:51:27.556Z,99919.00
2024-03-05T13:54:05.195Z,99920.60
2024-03-05T13:56:42.402Z,99923.20
2024-03-05T13:59:19.084Z,99929.60
2024-03-05T14:01:56.944Z,99924.60
2024-03-05T14:04:33.127Z,99925.20
2024-03-05T14:07:10.301Z,99927.40
2024-03-05T14:09:47.381Z,99930.60
2024-03-05T14:12:24.211Z,99927.00
2024-03-05T14:15:00.917Z,99922.80
2024-03-05T14:17:37.446Z,99925.40
2024-03-05T14:20:25.262Z,99920.80
2024-03-05T14:23:02.739Z,99925.60
2024-03-05T14:25:39.562Z,99924.00
2024-03-05T14:28:16.892Z,99921.00
2024-03-05T14:30:54.678Z,99918.20
2024-03-05T14:33:32.122Z,99918.20
2024-03-05T14:36:15.312Z,99921.00
2024-03-05T14:38:52.536Z,99921.00
2024-03-05T14:41:33.302Z,99922.00
2024-03-05T14:44:12.454Z,99921.20
2024-03-05T14:46:49.418Z,99920.60
2024-03-05T14:49:26.817Z,99922.00
2024-03-05T14:52:02.928Z,99923.20
2024-03-05T14:54:40.364Z,99925.80
2024-03-05T14:57:17.465Z,99921.60
2024-03-05T14:59:54.725Z,99919.40
2024-03-05T15:02:31.807Z,99920.20
2024-03-05T15:05:14.172Z,99918.20
2024-03-05T15:07:50.503Z,99922.00
2024-03-05T15:10:29.989Z,99912.60
2024-03-05T15:13:06.866Z,99911.40
2024-03-05T15:15:42.693Z,99910.40
2024-03-05T15:18:21.324Z,99912.00
2024-03-05T15:20:58.114Z,99912.40
2024-03-05T15:23:35.258Z,99911.80
2024-03-05T15:26:12.613Z,99912.20
2024-03-05T15:28:49.902Z,99914.00
2024-03-05T15:31:26.725Z,99916.40
2024-03-05T15:34:03.480Z,99914.60
2024-03-05T15:36:40.441Z,99919.60
2024-03-05T15:39:17.539Z,99921.60
2024-03-05T15:41:54.853Z,99924.40
2024-03-05T15:44:31.865Z,99925.20
2024-03-05T15:47:09.753Z,99928.80
2024-03-05T15:49:46.491Z,99932.20
2024-03-05T15:52:25.582Z,99938.40
2024-03-05T15:55:02.534Z,99942.20
2024-03-05T15:57:56.207Z,99945.40
2024-03-05T16:00:36.750Z,99944.80
2024-03-05T16:03:14.105Z,99945.60
2024-03-05T16:06:00.420Z,99946.20
2024-03-05T16:08:40.341Z,99945.20
2024-03-05T16:11:17.651Z,99948.40
2024-03-05T16:13:55.213Z,99950.80
2024-03-05T16:16:32.407Z,99956.80
2024-03-05T16:19:10.906Z,99959.20
2024-03-05T16:21:48.238Z,99958.80
2024-03-05T16:24:26.293Z,99956.20
2024-03-05T16:27:02.784Z,99958.80
2024-03-05T16:29:39.356Z,99953.40
2024-03-05T16:32:17.733Z,99957.00
2024-03-05T16:34:55.226Z,99959.40
2024-03-05T16:37:32.104Z,99963.40
2024-03-05T16:40:15.269Z,99968.40
2024-03-05T16:42:52.218Z,99973.60
2024-03-05T16:45:33.219Z,99974.00
2024-03-05T16:48:12.570Z,99975.60
2024-03-05T16:50:49.515Z,99981.20
2024-03-05T16:53:26.481Z,99983.60
2024-03-05T16:56:03.620Z,99982.80
2024-03-05T16:58:41.346Z,99987.40
2024-03-05T17:01:18.634Z,99989.20
2024-03-05T17:03:57.876Z,99990.20
2024-03-05T17:06:35.562Z,99990.20
2024-03-05T17:09:15.818Z,99992.80
2024-03-05T17:11:52.665Z,99994.00
2024-03-05T17:14:30.037Z,99995.40
2024-03-05T17:17:07.530Z,99997.80
2024-03-05T17:19:45.123Z,99997.20
2024-03-05T17:22:22.466Z,99997.80
2024-03-05T17:25:01.270Z,100002.40
2024-03-05T17:27:39.648Z,100009.00
2024-03-05T17:30:22.197Z,100012.20
2024-03-05T17:32:59.355Z,100011.00
2024-03-05T17:35:36.101Z,100008.20
2024-03-05T17:38:14.209Z,100008.00
2024-03-05T17:40:52.435Z,100008.20
2024-03-05T17:43:29.869Z,100014.00
2024-03-05T17:46:11.224Z,100015.80
2024-03-05T17:48:48.485Z,100015.20
2024-03-05T17:51:27.657Z,100012.80
2024-03-05T17:54:04.802Z,100013.80
2024-03-05T17:56:41.443Z,100015.40
2024-03-05T17:59:18.480Z,100020.20
2024-03-05T18:01:55.248Z,100023.40
2024-03-05T18:04:31.831Z,100029.60
2024-03-05T18:07:09.620Z,100046.00
2024-03-05T18:09:46.744Z,100049.80
2024-03-05T18:12:23.890Z,100060.00
2024-03-05T18:15:01.038Z,100063.40
2024-03-05T18:17:40.721Z,100064.80
2024-03-05T18:20:18.988Z,100074.80
2024-03-05T18:22:55.947Z,100071.20
2024-03-05T18:25:35.916Z,100070.00
2024-03-05T18:28:21.980Z,100066.20
2024-03-05T18:30:59.007Z,100072.60
2024-03-05T18:33:35.726Z,100076.60
2024-03-05T18:36:17.103Z,100083.40
2024-03-05T18:38:55.327Z,100085.20
2024-03-05T18:41:31.734Z,100086.80
2024-03-05T18:44:08.558Z,100081.20
2024-03-05T18:46:44.991Z,100075.80
2024-03-05T18:49:21.912Z,100075.60
2024-03-05T18:52:00.827Z,100071.40
2024-03-05T18:54:38.118Z,100071.40
2024-03-05T18:57:16.001Z,100065.00
2024-03-05T18:59:51.935Z,100058.60
2024-03-05T19:02:28.745Z,100062.60
2024-03-05T19:05:06.151Z,100061.20
2024-03-05T19:07:44.543Z,100057.80
2024-03-05T19:10:21.692Z,100058.00
2024-03-05T19:12:58.455Z,100056.60
2024-03-05T19:15:35.456Z,100053.00
2024-03-05T19:18:16.375Z,100055.80
2024-03-05T19:20:53.399Z,100056.00
2024-03-05T19:23:30.725Z,100058.40
2024-03-05T19:26:07.426Z,100055.60
2024-03-05T19:28:44.676Z,100056.00
2024-03-05T19:31:22.598Z,100056.00
2024-03-05T19:34:00.661Z,100051.60
2024-03-05T19:36:37.692Z,100051.60
2024-03-05T19:39:14.236Z,100052.40
2024-03-05T19:41:51.208Z,100048.80
2024-03-05T19:44:28.346Z,100049.60
2024-03-05T19:47:06.434Z,100049.40
2024-03-05T19:49:43.424Z,100048.00
2024-03-05T19:52:20.575Z,100047.20
2024-03-05T19:54:58.116Z,100053.80
2024-03-05T19:57:35.067Z,100065.60
2024-03-05T20:00:20.894Z,100063.20
2024-03-05T20:02:57.217Z,100063.40
2024-03-05T20:05:37.529Z,100064.00
2024-03-05T20:08:18.416Z,100068.60
2024-03-05T20:10:55.021Z,100068.40
2024-03-05T20:13:57.610Z,100067.60
2024-03-05T20:16:36.183Z,100066.40
2024-03-05T20:19:18.519Z,100062.20
2024-03-05T20:22:05.548Z,100063.20
2024-03-05T20:25:09.082Z,100061.80
2024-03-05T20:28:47.812Z,100064.20
2024-03-05T20:32:07.551Z,100058.20
2024-03-05T20:35:24.437Z,100055.80
2024-03-05T20:38:14.185Z,100050.40
2024-03-05T20:41:21.240Z,100045.80
2024-03-05T20:44:27.633Z,100049.80
2024-03-05T20:47:23.648Z,100044.20
2024-03-05T20:50:03.635Z,100035.80
2024-03-05T20:53:02.043Z,100026.00
2024-03-05T20:56:00.907Z,100020.20
2024-03-05T20:58:52.864Z,100008.00
2024-03-05T21:01:42.411Z,100006.80
2024-03-05T21:04:21.830Z,100007.40
2024-03-05T21:06:58.667Z,100007.20
2024-03-05T21:09:39.479Z,100008.60
2024-03-05T21:12:19.139Z,100008.80
2024-03-05T21:14:56.122Z,100005.80
2024-03-05T21:17:33.403Z,100010.40
2024-03-05T21:20:13.669Z,100015.60
2024-03-05T21:22:50.737Z,100019.00
2024-03-05T21:25:31.345Z,100021.40
2024-03-05T21:28:12.585Z,100022.00
2024-03-05T21:30:49.179Z,100016.00
2024-03-05T21:33:25.964Z,100015.00
2024-03-05T21:36:02.827Z,100018.20
2024-03-05T21:38:39.953Z,100025.60
2024-03-05T21:41:16.978Z,100028.20
2024-03-05T21:43:53.499Z,100028.80
2024-03-05T21:46:30.685Z,100024.80
2024-03-05T21:49:07.640Z,100021.80
2024-03-05T21:51:43.703Z,100020.80
2024-03-05T21:54:23.380Z,100020.40
2024-03-05T21:56:59.685Z,100025.20
2024-03-05T21:59:36.699Z,100028.00
2024-03-05T22:02:14.819Z,100029.80
2024-03-05T22:04:53.014Z,100029.20
2024-03-05T22:07:30.266Z,100033.40
2024-03-05T22:10:08.554Z,100027.40
2024-03-05T22:12:46.824Z,100021.60
2024-03-05T22:15:23.508Z,100021.00
2024-03-05T22:18:00.969Z,100025.00
2024-03-05T22:20:38.105Z,100029.60
2024-03-05T22:23:15.547Z,100032.00
2024-03-05T22:25:53.528Z,100030.60
2024-03-05T22:28:31.584Z,100035.20
2024-03-05T22:31:09.105Z,100037.20
2024-03-05T22:33:46.756Z,100037.20
2024-03-05T22:36:23.207Z,100033.40
2024-03-05T22:38:59.709Z,100039.40
2024-03-05T22:41:36.636Z,100039.20
2024-03-05T22:44:13.277Z,100036.80
2024-03-05T22:46:50.536Z,100029.40
2024-03-05T22:49:27.387Z,100023.00
2024-03-05T22:52:05.294Z,100013.40
2024-03-05T22:54:41.569Z,100016.40
2024-03-05T22:57:18.661Z,100024.60
2024-03-05T22:59:55.754Z,100028.20
2024-03-05T23:02:33.502Z,100027.20
2024-03-05T23:05:11.994Z,100027.80
2024-03-05T23:07:49.687Z,100021.40
2024-03-05T23:10:28.976Z,100027.80
2024-03-05T23:13:07.058Z,100027.20
2024-03-05T23:15:43.974Z,100025.60
2024-03-05T23:18:20.299Z,100020.00
2024-03-05T23:20:58.612Z,100023.40
2024-03-05T23:23:34.801Z,100039.20
2024-03-05T23:26:11.170Z,100045.20
2024-03-05T23:28:47.888Z,100050.80
2024-03-05T23:31:24.415Z,100054.80
2024-03-05T23:34:01.149Z,100045.60
2024-03-05T23:36:37.226Z,100049.40
2024-03-05T23:39:14.022Z,100041.40
2024-03-05T23:41:51.140Z,100047.00
2024-03-05T23:44:27.820Z,100058.20
2024-03-05T23:47:04.208Z,100052.80
2024-03-05T23:49:41.417Z,100064.20
2024-03-05T23:52:18.295Z,100063.40
2024-03-05T23:54:59.085Z,100064.60
2024-03-05T23:57:37.627Z,100071.20
